AirNav   ProFlight Series 2 Aviation Headset
 
 274 users online  

4FL0 Turkey Scratch Plantation Airport
Lamont, Florida, USA

GOING TO LAMONT?


FAA INFORMATION EFFECTIVE 18 JUNE 2020

Location

FAA Identifier: 4FL0
Lat/Long: 30-24-13.0000N 083-48-36.0000W
30-24.216667N 083-48.600000W
30.4036111,-83.8100000
(estimated)
Elevation: 115 ft. / 35 m (estimated)
Variation: 03W (1995)
From city: 2 miles S of LAMONT, FL
Time zone: UTC -4 (UTC -5 during Standard Time)
Zip code: 32344

Airport Operations

Airport use: Private use. Permission required prior to landing
Activation date: 03/1999
Control tower: no
ARTCC: JACKSONVILLE CENTER
FSS: GAINESVILLE FLIGHT SERVICE STATION
Attendance: UNATNDD
Segmented circle: no

Nearby radio navigation aids

VOR radial/distance  VOR name  Freq  Var
GEFr188/9.0GREENVILLE VORTAC109.0001E
SZWr105/30.6SEMINOLE VORTAC117.5002E
OTKr232/35.5VALDOSTA VOR/DME114.8002W

 
NDB name  Hdg/Dist  Freq  Var  ID
PATON184/33.224505WGTP --. - .--.
CAIDY152/34.233804WCYR -.-. -.-- .-.

Airport Services

Runway Information

Runway 18/36

Dimensions: 3000 x 75 ft. / 914 x 23 m
Surface: turf
RUNWAY 18  RUNWAY 36
Traffic pattern: leftleft
Displaced threshold: no1500 ft.
Obstructions: 100 ft. trees, 3000 ft. from runway45 ft. trees, 1000 ft. from runway

Airport Ownership and Management from official FAA records

Ownership: Privately-owned
Owner: RED HILLS LAND COMPANY
12501 BONITA AVE
REISTERSTOWN, MD 21136
Phone 410-833-1220
Manager: FRANKLIN FOSTER
12501 BONITA AVE
REISTERSTOWN, MD 21136
Phone 410-960-2956

Additional Remarks

PPR FOR LNDG.
FOR CD CTC TALLAHASSEE APCH AT 850-942-8311, WHEN APCH CLSD CTC JACKSONVILLE ARTCC AT 904-845-1592.

Instrument Procedures

There are no published instrument procedures at 4FL0.

Some nearby airports with instrument procedures:

KFPY - Perry-Foley Airport (23 nm SE)
4J5 - Quitman Brooks County Airport (27 nm NE)
KTLH - Tallahassee International Airport (28 nm W)
KTVI - Thomasville Regional Airport (30 nm N)
70J - Cairo-Grady County Airport (34 nm NW)
 
Loc | Ops | Rwys | IFR | FBO | Links
Com | Nav | Svcs | Stats | Notes
Area around 4FL0 (Turkey Scratch Plantation Airport)
 
Road maps at: MapQuest Bing Google
 
Aerial photo
No photo
 
Sectional chart

 
Airport distance calculator
Flying to Turkey Scratch Plantation Airport? Find the distance to fly.

From to 4FL0

Sunrise and sunset
Times for 14-Jul-2020
 Local
(UTC-4)
 Zulu
(UTC)
Morning civil twilight06:1710:17
Sunrise06:4410:44
Sunset20:3800:38
Evening civil twilight21:0501:05

Current date and time
Zulu (UTC)  14-Jul-2020 09:59:06
Local (UTC-4)  14-Jul-2020 05:59:06
 
METAR
KFPY 
23nm SE 
140935Z AUTO 00000KT 1/2SM FG BKN016 26/25 A2997 RMK AO2 T02580253
KTLH 
28nm W 
140953Z 00000KT 8SM SCT002 24/24 A2996 RMK AO2 SLP143 T02440239 $
KTVI 
30nm N 
140935Z AUTO 00000KT 7SM CLR 24/23 A2996 RMK AO2
KVLD 
36nm NE 
140953Z AUTO 00000KT 4SM BR CLR 24/22 A2996 RMK AO2 SLP150 T02390222
K2J9 
40nm W 
140955Z AUTO 00000KT 2 1/2SM BR OVC003 25/25 A2997 RMK AO2
KMGR 
41nm N 
140935Z AUTO 00000KT 7SM BKN007 25/23 A2997 RMK AO2
K24J 
41nm E 
140955Z AUTO 00000KT 6SM BR CLR 25/25 A2996 RMK A01
KVAD 
46nm NE 
140856Z AUTO 28003KT 10SM CLR 26/24 A2994 RMK AO2 SLP138 T02560240 55003 $
TAF
KTLH 
28nm W 
140520Z 1406/1506 00000KT P6SM SCT040 SCT200 FM141800 22006KT P6SM VCTS BKN050CB PROB30 1420/1502 4SM -TSRA SCT025 BKN040CB FM150200 00000KT P6SM SCT030 SCT200
NOTAMs
Click for the latest NOTAMs
NOTAMs are issued by the DoD/FAA and will open in a separate window not controlled by AirNav.

 

 
 

Would you like to see your business listed on this page?

 If your business provides an interesting product or service to pilots, flight crews, aircraft, or users of the Turkey Scratch Plantation Airport, you should consider listing it here.  To start the listing process, click on the button below
 
Add a business
 

Other Pages about Turkey Scratch Plantation Airport

Update a link
 
Copyright © AirNav, LLC. All rights reserved. Privacy Policy  Contact